Accueil
METAR-TAF:

METAR-TAF

Aéroports :

Aéroport de Cannes - Mandelieu

Cannes, France

latitude: 43-33N, longitude: 006-57E, altitude: 3 m

Observation

Le bulletin a été fait il y a 34 minutes, à 10:30 UTC
Vent 3 kt de sud
Température 24°C
Humidité 50%
Pression 1022 hPa
Visibilité 10 km ou plus
pas de nuages en-dessous de 1500 mètres et pas de cumulonimbus.

METAR: LFMD 201030Z AUTO 19003KT CAVOK 24/13 Q1022 NOSIG

Heure: 13:04 (11:04 UTC)

Prévision

Le bulletin a été fait il y a 3 heures et 4 minutes, à 08:00 UTC
Prévision valable du 20 à 09 UTC au 21 à 09 UTC
Vent 3 kt de direction variable
Visibilité 10 km ou plus
pas de nuages en-dessous de 1500 mètres et pas de cumulonimbus.
Temporairement
du 20 à 11 UTC au 20 à 15 UTC
Vent 10 kt de sud/sud-est

TAF: LFMD 200800Z 2009/2109 VRB03KT CAVOK TEMPO 2011/2015 16010KT

Observations et prévisions météorologiques de plus de 4000 aéroports (messages METAR et TAF).

Les stations disponibles sont représentées par des disques jaunes et rouges sur la carte.

Passer la souris dessus pour voir le nom de la station.

Cliquer dessus pour voir les observations et prévisions météorologiques.

Pour changer de carte: cliquez sur les boutons verts avec une croix noire pour zoomer, sur le bouton vert avec un tiret pour effectuer un zoom arrière, ou sur les flèches vertes pour les cartes adjacentes.


METAR-TAF: